Hayti, Missouri
Current Conditions -  °F | °C
As of 3:53 PM on Sunday 25 Jan 2015 (Local Time) from KHKA Reporting Station
Overcast Overcast  
Wind Chill: 42°   Ceiling: 4100
Heat Index: 48°   Visibility: 10mi
Dew Point: 42°   Wind: 16mph
Humidity: 80%   Direction: 310°NW
Pressure: 29.71"   Gusts: 26mph
Location:  36.23°N, 89.75°W
Report Text: KHKA 252153Z AUTO 31014G23KT 10SM SCT034 BKN041 OVC049 09/06 A2971 RMK AO2 WSHFT 2122 SLP062 T00890056
Loading
Personal Weather Stations






























Interactive Weather Map New forecast layout! Learn more

10-Day Weather Forecast

Advertisements
Track Severe Weather on mobile